createdAt,value
2023-07-07T00:00:34.555Z,63.47
2023-07-07T00:05:36.312Z,63.75
2023-07-07T00:10:36.988Z,63.94
2023-07-07T00:15:45.734Z,63.60
2023-07-07T00:20:46.724Z,63.86
2023-07-07T00:25:47.429Z,63.92
2023-07-07T00:30:49.430Z,64.17
2023-07-07T00:35:50.811Z,64.93
2023-07-07T00:40:54.091Z,64.62
2023-07-07T00:45:58.010Z,65.21
2023-07-07T00:51:02.604Z,65.80
2023-07-07T00:56:07.991Z,65.32
2023-07-07T01:01:15.341Z,65.36
2023-07-07T01:06:20.433Z,65.15
2023-07-07T01:11:21.114Z,65.46
2023-07-07T01:16:34.153Z,66.07
2023-07-07T01:21:42.870Z,66.74
2023-07-07T01:27:04.173Z,67.12
2023-07-07T01:32:11.616Z,67.73
2023-07-07T01:37:12.257Z,67.82
2023-07-07T01:42:18.182Z,66.79
2023-07-07T01:47:22.368Z,67.46
2023-07-07T01:52:33.008Z,67.16
2023-07-07T01:57:34.634Z,67.59
2023-07-07T02:02:37.941Z,67.79
2023-07-07T02:07:38.870Z,68.10
2023-07-07T02:12:39.747Z,68.90
2023-07-07T02:17:41.963Z,68.91
2023-07-07T02:22:42.628Z,69.51
2023-07-07T02:27:43.297Z,69.79
2023-07-07T02:32:45.365Z,70.27
2023-07-07T02:37:46.120Z,70.64
2023-07-07T02:42:47.317Z,70.53
2023-07-07T02:47:49.305Z,70.56
2023-07-07T02:52:49.985Z,70.78
2023-07-07T02:57:50.665Z,70.43
2023-07-07T03:02:53.018Z,70.59
2023-07-07T03:07:53.843Z,69.39
2023-07-07T03:12:55.287Z,68.09
2023-07-07T03:17:58.304Z,68.42
2023-07-07T03:23:00.179Z,68.97
2023-07-07T03:28:01.304Z,70.07
2023-07-07T03:33:12.585Z,69.25
2023-07-07T03:38:14.683Z,69.06
2023-07-07T03:43:19.468Z,68.48
2023-07-07T03:48:22.306Z,67.96
2023-07-07T03:53:23.322Z,67.76
2023-07-07T03:58:26.993Z,67.88
2023-07-07T04:03:29.337Z,68.08
2023-07-07T04:08:30.848Z,67.18
2023-07-07T04:13:33.305Z,67.75
2023-07-07T04:18:36.177Z,68.98
2023-07-07T04:23:40.373Z,69.53
2023-07-07T04:28:41.884Z,69.68
2023-07-07T04:33:43.958Z,68.87
2023-07-07T04:38:45.998Z,68.21
2023-07-07T04:43:50.849Z,68.73
2023-07-07T04:48:52.932Z,69.09
2023-07-07T04:53:54.252Z,68.38
2023-07-07T04:58:57.800Z,68.25
2023-07-07T05:04:02.089Z,67.68
2023-07-07T05:09:04.713Z,67.50
2023-07-07T05:14:05.626Z,66.78
2023-07-07T05:19:08.713Z,66.10
2023-07-07T05:24:11.267Z,64.88
2023-07-07T05:29:12.007Z,64.83
2023-07-07T05:34:14.023Z,63.88
2023-07-07T05:39:14.675Z,63.07
2023-07-07T05:44:15.349Z,62.75
2023-07-07T05:49:17.322Z,62.19
2023-07-07T05:54:17.941Z,60.79
2023-07-07T05:59:18.636Z,61.14
2023-07-07T06:04:21.271Z,60.00
2023-07-07T06:09:21.965Z,59.36
2023-07-07T06:14:22.676Z,59.32
2023-07-07T06:19:24.916Z,58.45
2023-07-07T06:24:25.607Z,57.73
2023-07-07T06:29:27.348Z,56.81
2023-07-07T06:34:29.886Z,55.79
2023-07-07T06:39:30.785Z,54.79
2023-07-07T06:44:31.665Z,54.22
2023-07-07T06:49:33.775Z,52.80
2023-07-07T06:54:34.504Z,52.83
2023-07-07T06:59:35.342Z,52.81
2023-07-07T07:04:37.335Z,52.22
2023-07-07T07:09:38.163Z,52.31
2023-07-07T07:14:38.820Z,51.83
2023-07-07T07:19:40.826Z,50.29
2023-07-07T07:24:41.519Z,50.13
2023-07-07T07:29:44.631Z,49.49
2023-07-07T07:34:46.697Z,49.76
2023-07-07T07:39:47.331Z,49.10
2023-07-07T07:44:48.133Z,48.59
2023-07-07T07:49:51.000Z,47.61
2023-07-07T07:54:51.757Z,47.04
2023-07-07T07:59:52.423Z,46.53
2023-07-07T08:04:54.495Z,44.43
2023-07-07T08:09:55.115Z,43.44
2023-07-07T08:14:55.812Z,43.34
2023-07-07T08:19:58.566Z,42.03
2023-07-07T08:25:01.537Z,41.38
2023-07-07T08:30:02.841Z,41.59
2023-07-07T08:35:05.361Z,40.98
2023-07-07T08:40:07.449Z,40.27
2023-07-07T08:45:15.893Z,40.36
2023-07-07T08:50:30.439Z,38.99
2023-07-07T08:55:45.754Z,39.57
2023-07-07T09:00:56.258Z,38.87
2023-07-07T09:06:07.436Z,38.67
2023-07-07T09:11:19.178Z,36.67
2023-07-07T09:16:29.196Z,36.32
2023-07-07T09:21:38.360Z,34.60
2023-07-07T09:26:40.073Z,34.18
2023-07-07T09:31:44.065Z,34.25
2023-07-07T09:36:54.531Z,31.73
2023-07-07T09:42:05.404Z,30.73
2023-07-07T09:47:19.272Z,30.65
2023-07-07T09:52:49.501Z,30.06
2023-07-07T09:57:58.626Z,29.87
2023-07-07T10:03:00.547Z,28.09
2023-07-07T10:08:04.363Z,28.63
2023-07-07T10:13:05.015Z,28.10
2023-07-07T10:18:15.131Z,27.19
2023-07-07T10:23:17.515Z,27.59
2023-07-07T10:28:20.396Z,26.65
2023-07-07T10:33:22.802Z,27.84
2023-07-07T10:38:27.324Z,26.89
2023-07-07T10:43:31.046Z,26.38
2023-07-07T10:48:31.937Z,25.70
2023-07-07T10:53:52.786Z,26.46
2023-07-07T10:59:11.439Z,26.80
2023-07-07T11:04:38.653Z,25.99
2023-07-07T11:10:11.974Z,25.61
2023-07-07T11:15:23.728Z,25.41
2023-07-07T11:20:49.171Z,25.80
2023-07-07T11:26:02.185Z,25.74
2023-07-07T11:31:23.346Z,25.65
2023-07-07T11:36:45.444Z,25.95
2023-07-07T11:42:04.864Z,26.76
2023-07-07T11:47:20.411Z,27.78
2023-07-07T11:52:48.694Z,27.58
2023-07-07T11:58:03.528Z,25.96
2023-07-07T12:03:27.772Z,24.21
2023-07-07T12:08:39.308Z,26.15
2023-07-07T12:14:00.012Z,24.91
2023-07-07T12:19:17.941Z,25.41
2023-07-07T12:24:25.817Z,25.93
2023-07-07T12:29:29.405Z,24.32
2023-07-07T12:34:40.244Z,25.01
2023-07-07T12:39:55.329Z,25.72
2023-07-07T12:44:59.140Z,24.56
2023-07-07T12:50:03.054Z,25.09
2023-07-07T12:55:21.833Z,24.30
2023-07-07T13:00:30.352Z,24.46
2023-07-07T13:05:34.108Z,25.28
2023-07-07T13:10:47.337Z,24.55
2023-07-07T13:15:49.394Z,24.84
2023-07-07T13:20:52.458Z,24.08
2023-07-07T13:25:53.188Z,22.54
2023-07-07T13:30:57.804Z,22.87
2023-07-07T13:36:01.394Z,22.36
2023-07-07T13:41:06.274Z,23.28
2023-07-07T13:46:17.669Z,23.06
2023-07-07T13:51:23.466Z,22.85
2023-07-07T13:56:24.935Z,22.14
2023-07-07T14:01:32.428Z,22.25
2023-07-07T14:06:34.431Z,21.71
2023-07-07T14:11:36.530Z,22.10
2023-07-07T14:16:42.046Z,21.86
2023-07-07T14:21:44.024Z,21.32
2023-07-07T14:26:45.327Z,22.21
2023-07-07T14:31:47.411Z,21.71
2023-07-07T14:36:50.426Z,20.25
2023-07-07T14:41:52.862Z,20.04
2023-07-07T14:46:55.090Z,21.32
2023-07-07T14:51:58.472Z,21.30
2023-07-07T14:57:04.966Z,20.92
2023-07-07T15:02:30.852Z,21.13
2023-07-07T15:07:32.953Z,20.67
2023-07-07T15:12:36.661Z,20.03
2023-07-07T15:17:38.705Z,20.00
2023-07-07T15:22:39.511Z,21.16
2023-07-07T15:27:40.860Z,21.01
2023-07-07T15:32:43.071Z,21.97
2023-07-07T15:37:45.035Z,21.34
2023-07-07T15:42:46.558Z,20.13
2023-07-07T15:47:48.810Z,20.64
2023-07-07T15:52:49.675Z,19.97
2023-07-07T15:57:50.366Z,21.27
2023-07-07T16:02:52.513Z,22.19
2023-07-07T16:07:53.357Z,21.90
2023-07-07T16:12:54.049Z,20.15
2023-07-07T16:17:56.157Z,19.03
2023-07-07T16:22:58.809Z,16.58
2023-07-07T16:27:59.772Z,16.58
2023-07-07T16:33:01.918Z,14.19
2023-07-07T16:38:02.691Z,13.80
2023-07-07T16:43:04.857Z,13.06
2023-07-07T16:48:13.382Z,13.20
2023-07-07T16:53:14.196Z,14.24
2023-07-07T16:58:16.344Z,15.88
2023-07-07T17:03:18.417Z,15.98
2023-07-07T17:08:19.087Z,16.33
2023-07-07T17:13:20.110Z,15.79
2023-07-07T17:18:22.200Z,16.14
2023-07-07T17:23:22.887Z,16.05
2023-07-07T17:28:23.841Z,16.32
2023-07-07T17:33:25.879Z,15.19
2023-07-07T17:38:26.723Z,15.54
2023-07-07T17:43:27.379Z,16.13
2023-07-07T17:48:29.355Z,16.41
2023-07-07T17:53:30.072Z,16.06
2023-07-07T17:58:30.841Z,16.91
2023-07-07T18:03:33.130Z,17.97
2023-07-07T18:08:34.030Z,19.10
2023-07-07T18:13:34.734Z,20.49
2023-07-07T18:18:54.074Z,21.86
2023-07-07T18:23:57.762Z,23.36
2023-07-07T18:29:01.908Z,24.10
2023-07-07T18:34:04.092Z,25.12
2023-07-07T18:39:11.384Z,26.47
2023-07-07T18:44:12.101Z,27.54
2023-07-07T18:49:14.888Z,27.55
2023-07-07T18:54:18.063Z,28.77
2023-07-07T18:59:22.375Z,28.39
2023-07-07T19:04:24.649Z,29.99
2023-07-07T19:09:25.346Z,29.89
2023-07-07T19:14:28.973Z,30.24
2023-07-07T19:19:31.028Z,31.11
2023-07-07T19:24:31.716Z,31.91
2023-07-07T19:29:32.366Z,32.84
2023-07-07T19:34:34.418Z,33.39
2023-07-07T19:39:35.674Z,34.43
2023-07-07T19:44:36.341Z,35.50
2023-07-07T19:49:38.305Z,35.31
2023-07-07T19:54:39.469Z,36.24
2023-07-07T19:59:40.154Z,36.40
2023-07-07T20:04:42.185Z,36.51
2023-07-07T20:09:42.891Z,35.92
2023-07-07T20:14:43.707Z,36.26
2023-07-07T20:19:45.745Z,36.82
2023-07-07T20:24:46.417Z,36.68
2023-07-07T20:29:47.090Z,39.00
2023-07-07T20:34:49.676Z,38.15
2023-07-07T20:39:52.609Z,40.01
2023-07-07T20:44:53.433Z,38.43
2023-07-07T20:49:55.541Z,39.84
2023-07-07T20:54:56.205Z,40.07
2023-07-07T20:59:56.860Z,40.61
2023-07-07T21:04:58.924Z,41.63
2023-07-07T21:09:59.809Z,42.43
2023-07-07T21:15:00.458Z,43.11
2023-07-07T21:20:15.122Z,43.57
2023-07-07T21:25:15.826Z,44.55
2023-07-07T21:30:18.499Z,45.16
2023-07-07T21:35:20.636Z,45.92
2023-07-07T21:40:23.087Z,46.30
2023-07-07T21:45:25.447Z,46.98
2023-07-07T21:50:28.167Z,46.96
2023-07-07T21:55:28.906Z,47.17
2023-07-07T22:00:31.690Z,47.80
2023-07-07T22:05:33.666Z,47.62
2023-07-07T22:10:39.854Z,48.23
2023-07-07T22:15:41.828Z,48.37
2023-07-07T22:20:46.275Z,49.49
2023-07-07T22:25:46.994Z,50.15
2023-07-07T22:30:50.784Z,50.28
2023-07-07T22:35:53.672Z,51.07
2023-07-07T22:40:57.039Z,51.58
2023-07-07T22:46:00.122Z,51.49
2023-07-07T22:51:02.199Z,52.02
2023-07-07T22:56:03.341Z,52.46
2023-07-07T23:01:06.883Z,53.22
2023-07-07T23:06:12.683Z,53.76
2023-07-07T23:11:16.964Z,54.82
2023-07-07T23:16:19.217Z,55.26
2023-07-07T23:21:21.246Z,55.16
2023-07-07T23:26:28.295Z,54.93
2023-07-07T23:31:29.601Z,55.73
2023-07-07T23:36:33.066Z,55.92
2023-07-07T23:41:33.811Z,55.78
2023-07-07T23:46:35.546Z,55.71
2023-07-07T23:51:37.556Z,56.34
2023-07-07T23:56:38.180Z,56.55
